DK-0005 weather

Public forecast

Using degrees Celsius for public forecast. Weather courtesy of forecast.io.

Closest aviation weather report (METAR) to Bogense Flyveplads

Closest report is Odense Airport, 10.9 nm (20.2 km) ESE. Retrieved 2020/08/10 05:20 UTC (37 minutes ago):

EKOD 100520Z 34003KT CAVOK 19/18 Q1020

Closest aviation forecast (TAF) to Bogense Flyveplads

Closest forecast is Billund Airport, 32.1 nm (59.5 km) WNW. Retrieved 2020-08-10 00:31 UTC (5 hours ago):

TAF EKBI 092308Z 1000/1024 04007KT CAVOK TEMPO 1005/1011 09007KT